Latest Coastal Weather Observations for Edithburgh

IDS60701

Issued at 3:41 pm CDT Monday 6 December 2021 (issued every 10 minutes, with the page automatically refreshed every 10 minutes)

About coastal observations | Map of coastal stations | Coastal observations for SA | Marine services | Other Formats
Station Details ID: 022046 Name: EDITHBURGH Lat: -35.11 Lon: 137.74 Height: 6.0 m
Data from the previous 72 hours. | See also: Recent months at Edithburgh
Date/Time
CDT
Wind Sea
Height
m
Swell Vis
km
Cloud Weather Temp
°C
Press
MSL
hPa
Rain since
9am
mm
Dir  Spd
kts
Gust
kts
Height
m
Period
s
Dir
06/03:30pm SW 15 20 - - - - - - - 22.5 1012.0 0.0
06/03:00pm WSW 13 18 - - - - - - - 23.4 1011.9 0.0
06/02:30pm SW 14 19 - - - - - - - 22.0 1012.1 0.0
06/02:00pm SW 12 17 - - - - - - - 23.1 1012.1 0.0
06/01:30pm SW 14 19 - - - - - - - 21.4 1012.4 0.0
06/01:00pm SSW 14 19 - - - - - - - 20.9 1012.8 0.0
06/12:30pm SSW 14 19 - - - - - - - 21.1 1012.9 0.0
06/12:00pm S 7 11 - - - - - - - 20.9 1012.7 0.0
06/11:30am SSW 12 15 - - - - - - - 19.5 1013.2 0.0
06/11:00am SSW 10 16 - - - - - - - 19.7 1013.3 0.0
06/10:30am SSE 7 10 - - - - - - - 18.5 1012.9 0.0
06/10:00am S 9 12 - - - - - - - 18.6 1013.1 0.0
06/09:30am S 8 11 - - - - - - - 18.1 1013.2 0.0
06/09:00am SSE 7 10 - - - - - - - 18.1 1013.0 0.0
06/08:30am SSE 7 10 - - - - - - - 17.7 1012.9 0.0
06/08:00am S 8 11 - - - - - - - 16.7 1013.0 0.0
06/07:30am S 8 10 - - - - - - - 16.7 1012.8 0.0
06/07:00am S 9 11 - - - - - - - 15.3 1012.6 0.0
06/06:30am SSE 9 11 - - - - - - - 15.2 1012.5 0.0
06/06:00am SSE 9 12 - - - - - - - 14.7 1012.4 0.0
06/05:30am S 10 13 - - - - - - - 14.7 1012.5 0.0
06/05:00am S 11 13 - - - - - - - 14.9 1012.4 0.0
06/04:30am S 11 14 - - - - - - - 14.9 1012.6 0.0
06/04:00am S 11 13 - - - - - - - 14.9 1012.8 0.0
06/03:30am S 11 14 - - - - - - - 15.1 1012.9 0.0
06/03:00am S 10 13 - - - - - - - 15.2 1013.0 0.0
06/02:30am S 7 9 - - - - - - - 15.2 1013.2 0.0
06/02:00am S 7 9 - - - - - - - 15.0 1013.4 0.0
06/01:30am SSE 8 11 - - - - - - - 15.2 1013.6 0.0
06/01:00am SE 8 11 - - - - - - - 15.2 1013.8 0.0
06/12:30am SE 9 11 - - - - - - - 15.3 1014.1 0.0
06/12:00am SSE 7 9 - - - - - - - 15.2 1014.5 0.0
 
Date/Time
CDT
Wind Sea
Height
m
Swell Vis
km
Cloud Weather Temp
°C
Press
MSL
hPa
Rain since
9am
mm
Dir  Spd
kts
Gust
kts
Height
m
Period
s
Dir
05/11:30pm SE 8 10 - - - - - - - 15.2 1014.8 0.0
05/11:00pm SE 8 12 - - - - - - - 15.5 1015.0 0.0
05/10:30pm SE 10 13 - - - - - - - 15.9 1015.2 0.0
05/10:00pm SE 11 15 - - - - - - - 16.0 1015.2 0.0
05/09:30pm SSE 10 13 - - - - - - - 15.9 1015.3 0.0
05/09:00pm SSE 12 15 - - - - - - - 16.0 1015.2 0.0
05/08:30pm SSE 12 16 - - - - - - - 16.0 1015.4 0.0
05/08:00pm SSE 15 19 - - - - - - - 16.1 1015.1 0.0
05/07:30pm SSE 14 19 - - - - - - - 16.1 1015.5 0.0
05/07:00pm SSE 13 18 - - - - - - - 16.5 1015.5 0.0
05/06:30pm SSE 15 18 - - - - - - - 17.1 1015.4 0.0
05/06:00pm SSE 13 19 - - - - - - - 18.2 1015.4 0.0
05/05:30pm SSE 14 19 - - - - - - - 18.8 1015.4 0.0
05/05:00pm SSE 14 18 - - - - - - - 19.3 1015.6 0.0
05/04:30pm SSE 16 19 - - - - - - - 18.1 1015.8 0.0
05/04:00pm SSE 14 18 - - - - - - - 19.4 1016.3 0.0
05/03:30pm SSE 14 17 - - - - - - - 18.7 1016.6 0.0
05/03:00pm SSE 14 18 - - - - - - - 19.3 1017.2 0.0
05/02:30pm SSE 13 16 - - - - - - - 18.9 1017.7 0.0
05/02:00pm SSE 11 14 - - - - - - - 19.7 1018.3 0.0
05/01:30pm SSE 7 9 - - - - - - - 18.6 1018.7 0.0
05/01:00pm SE 6 9 - - - - - - - 18.1 1019.1 0.0
05/12:30pm SE 7 10 - - - - - - - 17.9 1019.2 0.0
05/12:00pm ESE 7 10 - - - - - - - 17.5 1019.3 0.0
05/11:30am ESE 10 14 - - - - - - - 17.5 1019.3 0.0
05/11:00am ESE 10 14 - - - - - - - 17.9 1019.5 0.0
05/10:30am ESE 10 13 - - - - - - - 18.1 1020.2 0.0
05/10:00am ESE 10 13 - - - - - - - 17.6 1020.6 0.0
05/09:30am ESE 10 13 - - - - - - - 16.9 1021.0 0.0
05/09:00am E 9 12 - - - - - - - 17.2 1021.3 0.0
05/08:30am E 10 13 - - - - - - - 17.1 1021.3 0.0
05/08:00am E 12 15 - - - - - - - 17.1 1020.9 0.0
05/07:30am ESE 10 13 - - - - - - - 16.2 1020.6 0.0
05/07:00am ESE 13 16 - - - - - - - 16.2 1020.7 0.0
05/06:30am ESE 12 14 - - - - - - - 15.8 1020.4 0.0
05/06:00am ESE 13 17 - - - - - - - 15.1 1020.2 0.0
05/05:30am ESE 12 16 - - - - - - - 15.3 1020.1 0.0
05/05:00am ESE 13 17 - - - - - - - 15.2 1019.9 0.0
05/04:30am SE 14 18 - - - - - - - 15.2 1019.7 0.0
05/04:00am SE 14 18 - - - - - - - 14.9 1019.5 0.0
05/03:30am SE 12 16 - - - - - - - 15.2 1019.9 0.0
05/03:00am SE 12 16 - - - - - - - 15.2 1020.1 0.0
05/02:30am SE 12 16 - - - - - - - 15.0 1020.5 0.0
05/02:00am SE 12 16 - - - - - - - 15.0 1020.8 0.0
05/01:30am SE 14 18 - - - - - - - 15.1 1020.7 0.0
05/01:00am SSE 13 17 - - - - - - - 15.3 1021.2 0.0
05/12:30am SE 15 19 - - - - - - - 15.1 1021.3 0.0
05/12:00am SSE 14 18 - - - - - - - 15.1 1021.6 0.0
 
Date/Time
CDT
Wind Sea
Height
m
Swell Vis
km
Cloud Weather Temp
°C
Press
MSL
hPa
Rain since
9am
mm
Dir  Spd
kts
Gust
kts
Height
m
Period
s
Dir
04/11:30pm SE 13 17 - - - - - - - 15.2 1022.1 0.0
04/11:00pm SE 11 14 - - - - - - - 15.0 1022.5 0.0
04/10:30pm SE 12 15 - - - - - - - 15.2 1022.5 0.0
04/10:00pm SE 13 17 - - - - - - - 15.3 1022.3 0.0
04/09:30pm SE 13 17 - - - - - - - 15.4 1022.2 0.0
04/09:00pm SE 14 17 - - - - - - - 15.4 1022.0 0.0
04/08:30pm SE 13 17 - - - - - - - 15.6 1022.1 0.0
04/08:00pm SE 14 18 - - - - - - - 15.9 1021.8 0.0
04/07:30pm SE 9 13 - - - - - - - 16.7 1022.1 0.0
04/07:00pm SE 9 11 - - - - - - - 17.2 1021.8 0.0
04/06:30pm SE 10 13 - - - - - - - 17.2 1021.8 0.0
04/06:00pm SE 8 11 - - - - - - - 17.5 1021.8 0.0
04/05:30pm SSE 9 12 - - - - - - - 17.9 1021.6 0.0
04/05:00pm SE 10 13 - - - - - - - 17.9 1021.7 0.0
04/04:30pm SE 9 12 - - - - - - - 18.5 1022.0 0.0
04/04:00pm SSE 9 12 - - - - - - - 19.1 1022.2 0.0
04/03:30pm SSE 7 11 - - - - - - - 18.3 1022.8 0.0
04/03:00pm SE 8 11 - - - - - - - 19.0 1022.9 0.0
04/02:30pm S 9 11 - - - - - - - 19.5 1023.0 0.0
04/02:00pm SSE 10 13 - - - - - - - 19.0 1023.0 0.0
04/01:30pm SSE 8 12 - - - - - - - 19.4 1023.4 0.0
04/01:00pm SSE 8 12 - - - - - - - 18.8 1023.9 0.0
04/12:30pm SSE 10 13 - - - - - - - 19.1 1024.1 0.0
04/12:00pm SSE 8 11 - - - - - - - 18.2 1024.2 0.0
04/11:30am SSE 7 11 - - - - - - - 18.0 1024.2 0.0
04/11:00am SSE 9 14 - - - - - - - 17.7 1023.8 0.0
04/10:30am S 10 14 - - - - - - - 18.4 1023.8 0.0
04/10:00am S 9 12 - - - - - - - 18.4 1023.9 0.0
04/09:30am S 9 13 - - - - - - - 17.1 1023.8 0.0
04/09:00am SSW 10 13 - - - - - - - 16.8 1023.9 0.0
04/08:30am SSW 9 13 - - - - - - - 16.1 1023.7 0.0
04/08:00am S 8 13 - - - - - - - 16.2 1023.4 0.0
04/07:30am S 8 12 - - - - - - - 15.7 1023.2 0.0
04/07:00am S 12 16 - - - - - - - 15.0 1022.7 0.0
04/06:30am S 9 13 - - - - - - - 14.8 1022.5 0.0
04/06:00am S 9 13 - - - - - - - 14.5 1022.3 0.0
04/05:30am S 8 11 - - - - - - - 14.2 1022.1 0.0
04/05:00am S 10 15 - - - - - - - 13.9 1021.7 0.0
04/04:30am S 10 15 - - - - - - - 13.6 1021.6 0.0
04/04:00am S 12 17 - - - - - - - 13.7 1021.3 0.0
04/03:30am S 10 14 - - - - - - - 13.4 1021.5 0.0
04/03:00am S 10 14 - - - - - - - 13.7 1021.3 0.0
04/02:30am SSE 10 13 - - - - - - - 13.7 1021.2 0.0
04/02:00am SSE 9 13 - - - - - - - 13.5 1021.5 0.0
04/01:30am SSE 10 15 - - - - - - - 13.8 1021.6 0.0
04/01:00am S 10 14 - - - - - - - 13.8 1022.0 0.0
04/12:30am S 11 15 - - - - - - - 13.9 1022.2 0.0
04/12:00am SSE 13 17 - - - - - - - 14.1 1022.1 0.0
 
Date/Time
CDT
Wind Sea
Height
m
Swell Vis
km
Cloud Weather Temp
°C
Press
MSL
hPa
Rain since
9am
mm
Dir  Spd
kts
Gust
kts
Height
m
Period
s
Dir
03/11:30pm SSE 13 17 - - - - - - - 14.3 1022.0 0.0
03/11:00pm SSE 14 19 - - - - - - - 14.3 1022.2 0.0
03/10:30pm SSE 14 20 - - - - - - - 14.5 1022.1 0.0
03/10:00pm SSE 14 19 - - - - - - - 14.5 1022.0 0.0
03/09:30pm SSE 13 18 - - - - - - - 14.7 1021.8 0.0
03/09:00pm SSE 13 17 - - - - - - - 15.0 1021.5 0.0
03/08:30pm SSE 14 19 - - - - - - - 15.3 1021.2 0.0
03/08:00pm SSE 12 15 - - - - - - - 15.7 1021.3 0.0
03/07:30pm SSE 12 17 - - - - - - - 16.4 1021.3 0.0
03/07:00pm SSE 12 16 - - - - - - - 16.9 1021.2 0.0
03/06:30pm SSE 11 15 - - - - - - - 17.4 1020.9 0.0
03/06:00pm SSE 9 11 - - - - - - - 17.2 1021.2 0.0
03/05:30pm SSE 11 15 - - - - - - - 17.9 1020.9 0.0
03/05:00pm SSE 12 15 - - - - - - - 18.4 1020.7 0.0
03/04:30pm SSE 13 17 - - - - - - - 19.0 1019.8 0.0
03/04:00pm S 10 13 - - - - - - - 19.8 1020.3 0.0

Other formats

Comma delimited format used in spreadsheet applications
http://www.bom.gov.au/fwo/IDS60701/IDS60701.94809.axf

JavaScript Object Notation format (JSON) in row-major order
http://www.bom.gov.au/fwo/IDS60701/IDS60701.94809.json

Data quality

Most of these data are generated automatically and are frequently updated. Quality checks on data are not normally performed. It is possible for incorrect values to appear. Refer to information at About Latest Weather Observations and please check the disclaimer before using these data.